sensor_id;sensor_type;location;lat;lon;timestamp;P1;durP1;ratioP1;P2;durP2;ratioP2
36833;SDS011;48003;52.084;5.224;2023-07-31T00:00:20;4.1;;;2.7;;
36833;SDS011;48003;52.084;5.224;2023-07-31T00:03:34;3.4;;;2.4;;
36833;SDS011;48003;52.084;5.224;2023-07-31T00:05:10;3.4;;;2.6;;
36833;SDS011;48003;52.084;5.224;2023-07-31T00:06:47;5.3;;;2.6;;
36833;SDS011;48003;52.084;5.224;2023-07-31T00:10:01;5.5;;;3.2;;
36833;SDS011;48003;52.084;5.224;2023-07-31T00:11:38;4.2;;;2.7;;
36833;SDS011;48003;52.084;5.224;2023-07-31T00:13:15;5.6;;;2.8;;
36833;SDS011;48003;52.084;5.224;2023-07-31T00:16:28;8.5;;;3.1;;
36833;SDS011;48003;52.084;5.224;2023-07-31T00:18:05;8.1;;;2.8;;
36833;SDS011;48003;52.084;5.224;2023-07-31T00:19:43;14.1;;;3.5;;
36833;SDS011;48003;52.084;5.224;2023-07-31T00:21:20;12.6;;;3.8;;
36833;SDS011;48003;52.084;5.224;2023-07-31T00:24:34;13.1;;;4.2;;
36833;SDS011;48003;52.084;5.224;2023-07-31T00:26:10;13.5;;;4.61;;
36833;SDS011;48003;52.084;5.224;2023-07-31T00:27:47;16.5;;;5.0;;
36833;SDS011;48003;52.084;5.224;2023-07-31T00:31:01;17.91;;;5.6;;
36833;SDS011;48003;52.084;5.224;2023-07-31T00:32:38;19.2;;;5.3;;
36833;SDS011;48003;52.084;5.224;2023-07-31T00:34:14;26.5;;;6.7;;
36833;SDS011;48003;52.084;5.224;2023-07-31T00:35:51;29.2;;;6.9;;
36833;SDS011;48003;52.084;5.224;2023-07-31T00:39:04;26.3;;;7.0;;
36833;SDS011;48003;52.084;5.224;2023-07-31T00:40:42;25.6;;;6.6;;
36833;SDS011;48003;52.084;5.224;2023-07-31T00:42:18;30.3;;;7.6;;
36833;SDS011;48003;52.084;5.224;2023-07-31T00:45:31;27.1;;;7.3;;
36833;SDS011;48003;52.084;5.224;2023-07-31T00:47:08;35.0;;;7.8;;
36833;SDS011;48003;52.084;5.224;2023-07-31T00:48:46;29.7;;;7.6;;
36833;SDS011;48003;52.084;5.224;2023-07-31T00:52:01;27.0;;;6.7;;
36833;SDS011;48003;52.084;5.224;2023-07-31T00:53:37;31.2;;;7.2;;
36833;SDS011;48003;52.084;5.224;2023-07-31T00:55:14;29.4;;;7.9;;
36833;SDS011;48003;52.084;5.224;2023-07-31T00:56:52;25.8;;;7.2;;
36833;SDS011;48003;52.084;5.224;2023-07-31T01:00:07;28.7;;;7.3;;
36833;SDS011;48003;52.084;5.224;2023-07-31T01:01:46;25.0;;;6.8;;
36833;SDS011;48003;52.084;5.224;2023-07-31T01:03:23;26.0;;;7.8;;
36833;SDS011;48003;52.084;5.224;2023-07-31T01:06:40;23.9;;;6.9;;
36833;SDS011;48003;52.084;5.224;2023-07-31T01:08:30;30.1;;;6.7;;
36833;SDS011;48003;52.084;5.224;2023-07-31T01:10:26;26.8;;;7.1;;
36833;SDS011;48003;52.084;5.224;2023-07-31T01:12:10;28.9;;;7.6;;
36833;SDS011;48003;52.084;5.224;2023-07-31T01:13:50;23.6;;;6.9;;
36833;SDS011;48003;52.084;5.224;2023-07-31T01:17:04;27.6;;;7.8;;
36833;SDS011;48003;52.084;5.224;2023-07-31T01:18:41;30.8;;;7.6;;
36833;SDS011;48003;52.084;5.224;2023-07-31T01:20:20;34.31;;;7.6;;
36833;SDS011;48003;52.084;5.224;2023-07-31T01:22:04;23.9;;;7.6;;
36833;SDS011;48003;52.084;5.224;2023-07-31T01:24:08;26.0;;;7.7;;
36833;SDS011;48003;52.084;5.224;2023-07-31T01:26:23;26.5;;;7.2;;
36833;SDS011;48003;52.084;5.224;2023-07-31T01:29:51;25.6;;;6.8;;
36833;SDS011;48003;52.084;5.224;2023-07-31T01:31:35;25.7;;;7.3;;
36833;SDS011;48003;52.084;5.224;2023-07-31T01:33:15;18.91;;;6.0;;
36833;SDS011;48003;52.084;5.224;2023-07-31T01:34:53;20.11;;;6.3;;
36833;SDS011;48003;52.084;5.224;2023-07-31T01:36:31;23.6;;;7.3;;
36833;SDS011;48003;52.084;5.224;2023-07-31T01:39:45;26.6;;;6.7;;
36833;SDS011;48003;52.084;5.224;2023-07-31T01:41:21;24.2;;;7.8;;
36833;SDS011;48003;52.084;5.224;2023-07-31T01:42:58;27.2;;;7.4;;
36833;SDS011;48003;52.084;5.224;2023-07-31T01:46:11;23.2;;;7.3;;
36833;SDS011;48003;52.084;5.224;2023-07-31T01:47:48;27.2;;;7.6;;
36833;SDS011;48003;52.084;5.224;2023-07-31T01:49:25;23.4;;;7.2;;
36833;SDS011;48003;52.084;5.224;2023-07-31T01:52:39;26.8;;;7.8;;
36833;SDS011;48003;52.084;5.224;2023-07-31T01:54:16;25.5;;;7.4;;
36833;SDS011;48003;52.084;5.224;2023-07-31T01:55:52;25.1;;;7.0;;
36833;SDS011;48003;52.084;5.224;2023-07-31T01:57:28;22.5;;;6.9;;
36833;SDS011;48003;52.084;5.224;2023-07-31T02:00:42;21.9;;;6.2;;
36833;SDS011;48003;52.084;5.224;2023-07-31T02:02:18;17.61;;;6.0;;
36833;SDS011;48003;52.084;5.224;2023-07-31T02:03:55;21.5;;;6.2;;
36833;SDS011;48003;52.084;5.224;2023-07-31T02:07:09;17.91;;;5.7;;
36833;SDS011;48003;52.084;5.224;2023-07-31T02:08:47;19.7;;;5.8;;
36833;SDS011;48003;52.084;5.224;2023-07-31T02:10:24;17.2;;;6.1;;
36833;SDS011;48003;52.084;5.224;2023-07-31T02:13:37;14.7;;;5.4;;
36833;SDS011;48003;52.084;5.224;2023-07-31T02:15:13;21.5;;;5.5;;
36833;SDS011;48003;52.084;5.224;2023-07-31T02:16:50;17.91;;;5.5;;
36833;SDS011;48003;52.084;5.224;2023-07-31T02:18:27;19.11;;;5.4;;
36833;SDS011;48003;52.084;5.224;2023-07-31T02:21:42;14.2;;;5.3;;
36833;SDS011;48003;52.084;5.224;2023-07-31T02:23:18;16.2;;;5.6;;
36833;SDS011;48003;52.084;5.224;2023-07-31T02:24:55;15.0;;;5.6;;
36833;SDS011;48003;52.084;5.224;2023-07-31T02:28:08;16.11;;;5.11;;
36833;SDS011;48003;52.084;5.224;2023-07-31T02:29:45;15.4;;;5.2;;
36833;SDS011;48003;52.084;5.224;2023-07-31T02:31:21;17.0;;;5.5;;
36833;SDS011;48003;52.084;5.224;2023-07-31T02:32:58;15.3;;;4.91;;
36833;SDS011;48003;52.084;5.224;2023-07-31T02:36:12;21.9;;;5.5;;
36833;SDS011;48003;52.084;5.224;2023-07-31T02:37:49;19.2;;;5.0;;
36833;SDS011;48003;52.084;5.224;2023-07-31T02:39:26;18.2;;;5.11;;
36833;SDS011;48003;52.084;5.224;2023-07-31T02:42:39;22.4;;;6.2;;
36833;SDS011;48003;52.084;5.224;2023-07-31T02:44:16;23.1;;;6.1;;
36833;SDS011;48003;52.084;5.224;2023-07-31T02:45:53;23.3;;;6.4;;
36833;SDS011;48003;52.084;5.224;2023-07-31T02:49:06;24.4;;;6.1;;
36833;SDS011;48003;52.084;5.224;2023-07-31T02:50:42;21.9;;;6.2;;
36833;SDS011;48003;52.084;5.224;2023-07-31T02:52:19;25.7;;;6.6;;
36833;SDS011;48003;52.084;5.224;2023-07-31T02:53:55;27.4;;;6.7;;
36833;SDS011;48003;52.084;5.224;2023-07-31T02:57:09;27.0;;;7.2;;
36833;SDS011;48003;52.084;5.224;2023-07-31T02:58:45;21.8;;;6.9;;
36833;SDS011;48003;52.084;5.224;2023-07-31T03:00:22;20.8;;;6.5;;
36833;SDS011;48003;52.084;5.224;2023-07-31T03:03:36;22.8;;;6.3;;
36833;SDS011;48003;52.084;5.224;2023-07-31T03:05:12;26.9;;;6.7;;
36833;SDS011;48003;52.084;5.224;2023-07-31T03:06:50;25.9;;;7.2;;
36833;SDS011;48003;52.084;5.224;2023-07-31T03:10:03;22.2;;;6.8;;
36833;SDS011;48003;52.084;5.224;2023-07-31T03:11:40;23.0;;;7.2;;
36833;SDS011;48003;52.084;5.224;2023-07-31T03:13:17;22.2;;;6.9;;
36833;SDS011;48003;52.084;5.224;2023-07-31T03:14:55;22.0;;;7.4;;
36833;SDS011;48003;52.084;5.224;2023-07-31T03:18:09;26.0;;;6.9;;
36833;SDS011;48003;52.084;5.224;2023-07-31T03:19:45;23.4;;;6.9;;
36833;SDS011;48003;52.084;5.224;2023-07-31T03:21:21;23.9;;;7.2;;
36833;SDS011;48003;52.084;5.224;2023-07-31T03:24:35;24.5;;;7.8;;
36833;SDS011;48003;52.084;5.224;2023-07-31T03:26:12;22.7;;;7.1;;
36833;SDS011;48003;52.084;5.224;2023-07-31T03:27:49;21.2;;;7.6;;
36833;SDS011;48003;52.084;5.224;2023-07-31T03:31:02;22.1;;;7.3;;
36833;SDS011;48003;52.084;5.224;2023-07-31T03:32:38;24.4;;;7.5;;
36833;SDS011;48003;52.084;5.224;2023-07-31T03:34:15;25.2;;;7.4;;
36833;SDS011;48003;52.084;5.224;2023-07-31T03:35:52;25.8;;;7.4;;
36833;SDS011;48003;52.084;5.224;2023-07-31T03:39:06;20.7;;;7.3;;
36833;SDS011;48003;52.084;5.224;2023-07-31T03:40:43;21.8;;;7.5;;
36833;SDS011;48003;52.084;5.224;2023-07-31T03:42:20;21.8;;;6.9;;
36833;SDS011;48003;52.084;5.224;2023-07-31T03:45:34;22.7;;;7.1;;
36833;SDS011;48003;52.084;5.224;2023-07-31T03:47:11;21.9;;;7.3;;
36833;SDS011;48003;52.084;5.224;2023-07-31T03:48:47;22.7;;;7.7;;
36833;SDS011;48003;52.084;5.224;2023-07-31T03:50:24;22.1;;;6.7;;
36833;SDS011;48003;52.084;5.224;2023-07-31T03:53:37;23.6;;;6.6;;
36833;SDS011;48003;52.084;5.224;2023-07-31T03:55:15;20.11;;;6.6;;
36833;SDS011;48003;52.084;5.224;2023-07-31T03:56:52;23.1;;;7.0;;
36833;SDS011;48003;52.084;5.224;2023-07-31T04:00:05;19.0;;;7.0;;
36833;SDS011;48003;52.084;5.224;2023-07-31T04:01:43;21.1;;;7.0;;
36833;SDS011;48003;52.084;5.224;2023-07-31T04:03:19;19.91;;;7.2;;
36833;SDS011;48003;52.084;5.224;2023-07-31T04:06:33;22.7;;;6.5;;
36833;SDS011;48003;52.084;5.224;2023-07-31T04:08:10;21.3;;;6.5;;
36833;SDS011;48003;52.084;5.224;2023-07-31T04:09:47;20.8;;;6.3;;
36833;SDS011;48003;52.084;5.224;2023-07-31T04:11:23;21.0;;;6.8;;
36833;SDS011;48003;52.084;5.224;2023-07-31T04:14:37;22.1;;;6.6;;
36833;SDS011;48003;52.084;5.224;2023-07-31T04:16:14;19.11;;;6.9;;
36833;SDS011;48003;52.084;5.224;2023-07-31T04:17:50;22.9;;;6.8;;
36833;SDS011;48003;52.084;5.224;2023-07-31T04:21:03;22.6;;;7.2;;
36833;SDS011;48003;52.084;5.224;2023-07-31T04:22:40;22.6;;;7.1;;
36833;SDS011;48003;52.084;5.224;2023-07-31T04:24:17;22.0;;;6.6;;
36833;SDS011;48003;52.084;5.224;2023-07-31T04:27:32;19.7;;;6.8;;
36833;SDS011;48003;52.084;5.224;2023-07-31T04:29:08;17.2;;;6.4;;
36833;SDS011;48003;52.084;5.224;2023-07-31T04:30:45;21.4;;;6.7;;
36833;SDS011;48003;52.084;5.224;2023-07-31T04:32:23;22.9;;;6.8;;
36833;SDS011;48003;52.084;5.224;2023-07-31T04:35:36;18.41;;;5.9;;
36833;SDS011;48003;52.084;5.224;2023-07-31T04:37:13;19.41;;;6.5;;
36833;SDS011;48003;52.084;5.224;2023-07-31T04:38:50;16.3;;;5.6;;
36833;SDS011;48003;52.084;5.224;2023-07-31T04:42:04;16.9;;;6.3;;
36833;SDS011;48003;52.084;5.224;2023-07-31T04:43:40;19.61;;;6.5;;
36833;SDS011;48003;52.084;5.224;2023-07-31T04:45:18;19.41;;;6.3;;
36833;SDS011;48003;52.084;5.224;2023-07-31T04:46:55;20.41;;;5.8;;
36833;SDS011;48003;52.084;5.224;2023-07-31T04:50:08;16.61;;;6.1;;
36833;SDS011;48003;52.084;5.224;2023-07-31T04:51:45;21.8;;;6.7;;
36833;SDS011;48003;52.084;5.224;2023-07-31T04:53:21;18.5;;;6.5;;
36833;SDS011;48003;52.084;5.224;2023-07-31T04:56:35;17.2;;;6.3;;
36833;SDS011;48003;52.084;5.224;2023-07-31T04:58:12;13.5;;;5.5;;
36833;SDS011;48003;52.084;5.224;2023-07-31T04:59:49;18.7;;;6.1;;
36833;SDS011;48003;52.084;5.224;2023-07-31T05:03:02;18.0;;;5.9;;
36833;SDS011;48003;52.084;5.224;2023-07-31T05:04:39;19.3;;;5.8;;
36833;SDS011;48003;52.084;5.224;2023-07-31T05:06:16;15.2;;;6.0;;
36833;SDS011;48003;52.084;5.224;2023-07-31T05:07:53;14.6;;;5.6;;
36833;SDS011;48003;52.084;5.224;2023-07-31T05:11:07;15.6;;;5.7;;
36833;SDS011;48003;52.084;5.224;2023-07-31T05:12:45;13.1;;;5.11;;
36833;SDS011;48003;52.084;5.224;2023-07-31T05:14:22;13.6;;;4.7;;
36833;SDS011;48003;52.084;5.224;2023-07-31T05:17:35;13.8;;;4.91;;
36833;SDS011;48003;52.084;5.224;2023-07-31T05:19:12;11.3;;;4.5;;
36833;SDS011;48003;52.084;5.224;2023-07-31T05:20:49;13.4;;;4.8;;
36833;SDS011;48003;52.084;5.224;2023-07-31T05:22:26;12.3;;;4.91;;
36833;SDS011;48003;52.084;5.224;2023-07-31T05:25:41;10.6;;;4.61;;
36833;SDS011;48003;52.084;5.224;2023-07-31T05:27:19;14.0;;;4.41;;
36833;SDS011;48003;52.084;5.224;2023-07-31T05:28:56;13.1;;;4.8;;
36833;SDS011;48003;52.084;5.224;2023-07-31T05:32:08;12.2;;;4.8;;
36833;SDS011;48003;52.084;5.224;2023-07-31T05:33:45;7.7;;;4.41;;
36833;SDS011;48003;52.084;5.224;2023-07-31T05:35:21;9.6;;;4.2;;
36833;SDS011;48003;52.084;5.224;2023-07-31T05:38:35;11.6;;;4.1;;
36833;SDS011;48003;52.084;5.224;2023-07-31T05:40:12;10.0;;;4.61;;
36833;SDS011;48003;52.084;5.224;2023-07-31T05:41:49;8.9;;;4.3;;
36833;SDS011;48003;52.084;5.224;2023-07-31T05:43:26;7.7;;;4.1;;
36833;SDS011;48003;52.084;5.224;2023-07-31T05:46:41;11.7;;;4.91;;
36833;SDS011;48003;52.084;5.224;2023-07-31T05:48:18;11.5;;;5.0;;
36833;SDS011;48003;52.084;5.224;2023-07-31T05:49:55;12.1;;;4.61;;
36833;SDS011;48003;52.084;5.224;2023-07-31T05:53:08;10.21;;;5.2;;
36833;SDS011;48003;52.084;5.224;2023-07-31T05:54:45;11.6;;;4.8;;
36833;SDS011;48003;52.084;5.224;2023-07-31T05:56:22;10.6;;;4.41;;
36833;SDS011;48003;52.084;5.224;2023-07-31T05:59:37;12.4;;;4.91;;
36833;SDS011;48003;52.084;5.224;2023-07-31T06:01:13;12.7;;;5.3;;
36833;SDS011;48003;52.084;5.224;2023-07-31T06:02:49;12.0;;;5.0;;
36833;SDS011;48003;52.084;5.224;2023-07-31T06:04:26;12.0;;;4.91;;
36833;SDS011;48003;52.084;5.224;2023-07-31T06:07:40;12.0;;;4.91;;
36833;SDS011;48003;52.084;5.224;2023-07-31T06:09:17;9.9;;;5.0;;
36833;SDS011;48003;52.084;5.224;2023-07-31T06:10:53;10.4;;;4.61;;
36833;SDS011;48003;52.084;5.224;2023-07-31T06:14:06;9.5;;;4.7;;
36833;SDS011;48003;52.084;5.224;2023-07-31T06:15:43;12.9;;;5.11;;
36833;SDS011;48003;52.084;5.224;2023-07-31T06:17:20;12.5;;;5.11;;
36833;SDS011;48003;52.084;5.224;2023-07-31T06:18:57;9.0;;;4.2;;
36833;SDS011;48003;52.084;5.224;2023-07-31T06:22:11;11.2;;;4.61;;
36833;SDS011;48003;52.084;5.224;2023-07-31T06:23:48;9.21;;;4.0;;
36833;SDS011;48003;52.084;5.224;2023-07-31T06:25:25;8.4;;;4.41;;
36833;SDS011;48003;52.084;5.224;2023-07-31T06:28:38;8.4;;;4.41;;
36833;SDS011;48003;52.084;5.224;2023-07-31T06:30:15;11.2;;;4.3;;
36833;SDS011;48003;52.084;5.224;2023-07-31T06:31:52;9.9;;;4.1;;
36833;SDS011;48003;52.084;5.224;2023-07-31T06:35:07;10.21;;;4.1;;
36833;SDS011;48003;52.084;5.224;2023-07-31T06:36:44;8.6;;;3.8;;
36833;SDS011;48003;52.084;5.224;2023-07-31T06:38:22;11.5;;;4.1;;
36833;SDS011;48003;52.084;5.224;2023-07-31T06:40:01;8.6;;;3.8;;
36833;SDS011;48003;52.084;5.224;2023-07-31T06:43:15;7.1;;;3.5;;
36833;SDS011;48003;52.084;5.224;2023-07-31T06:44:53;8.4;;;3.6;;
36833;SDS011;48003;52.084;5.224;2023-07-31T06:46:29;6.9;;;3.7;;
36833;SDS011;48003;52.084;5.224;2023-07-31T06:49:43;7.4;;;3.7;;
36833;SDS011;48003;52.084;5.224;2023-07-31T06:51:19;8.0;;;3.5;;
36833;SDS011;48003;52.084;5.224;2023-07-31T06:52:56;6.2;;;3.4;;
36833;SDS011;48003;52.084;5.224;2023-07-31T06:54:32;7.7;;;3.0;;
36833;SDS011;48003;52.084;5.224;2023-07-31T06:57:46;5.6;;;3.2;;
36833;SDS011;48003;52.084;5.224;2023-07-31T06:59:23;6.8;;;3.3;;
36833;SDS011;48003;52.084;5.224;2023-07-31T07:01:00;5.8;;;3.2;;
36833;SDS011;48003;52.084;5.224;2023-07-31T07:04:14;8.71;;;3.4;;
36833;SDS011;48003;52.084;5.224;2023-07-31T07:05:51;9.1;;;3.2;;
36833;SDS011;48003;52.084;5.224;2023-07-31T07:07:29;5.6;;;2.8;;
36833;SDS011;48003;52.084;5.224;2023-07-31T07:10:42;7.1;;;3.0;;
36833;SDS011;48003;52.084;5.224;2023-07-31T07:12:19;7.8;;;3.7;;
36833;SDS011;48003;52.084;5.224;2023-07-31T07:13:56;6.1;;;3.0;;
36833;SDS011;48003;52.084;5.224;2023-07-31T07:15:33;8.2;;;3.3;;
36833;SDS011;48003;52.084;5.224;2023-07-31T07:18:46;6.2;;;3.2;;
36833;SDS011;48003;52.084;5.224;2023-07-31T07:20:24;6.3;;;2.9;;
36833;SDS011;48003;52.084;5.224;2023-07-31T07:22:01;9.0;;;2.9;;
36833;SDS011;48003;52.084;5.224;2023-07-31T07:25:14;6.1;;;2.8;;
36833;SDS011;48003;52.084;5.224;2023-07-31T07:26:52;5.11;;;3.2;;
36833;SDS011;48003;52.084;5.224;2023-07-31T07:28:28;8.81;;;3.3;;
36833;SDS011;48003;52.084;5.224;2023-07-31T07:30:05;8.2;;;3.2;;
36833;SDS011;48003;52.084;5.224;2023-07-31T07:33:20;5.8;;;2.6;;
36833;SDS011;48003;52.084;5.224;2023-07-31T07:34:57;5.7;;;3.1;;
36833;SDS011;48003;52.084;5.224;2023-07-31T07:36:34;6.7;;;2.9;;
36833;SDS011;48003;52.084;5.224;2023-07-31T07:39:50;7.8;;;2.9;;
36833;SDS011;48003;52.084;5.224;2023-07-31T07:41:26;5.3;;;2.8;;
36833;SDS011;48003;52.084;5.224;2023-07-31T07:43:03;5.8;;;2.6;;
36833;SDS011;48003;52.084;5.224;2023-07-31T07:46:16;4.5;;;2.4;;
36833;SDS011;48003;52.084;5.224;2023-07-31T07:47:53;4.5;;;2.4;;
36833;SDS011;48003;52.084;5.224;2023-07-31T07:49:31;4.3;;;2.4;;
36833;SDS011;48003;52.084;5.224;2023-07-31T07:51:08;4.61;;;2.4;;
36833;SDS011;48003;52.084;5.224;2023-07-31T07:54:22;2.8;;;2.1;;
36833;SDS011;48003;52.084;5.224;2023-07-31T07:55:59;6.8;;;2.21;;
36833;SDS011;48003;52.084;5.224;2023-07-31T07:57:36;3.9;;;2.31;;
36833;SDS011;48003;52.084;5.224;2023-07-31T08:00:50;5.0;;;2.4;;
36833;SDS011;48003;52.084;5.224;2023-07-31T08:02:27;3.8;;;2.1;;
36833;SDS011;48003;52.084;5.224;2023-07-31T08:04:04;3.1;;;1.7;;
36833;SDS011;48003;52.084;5.224;2023-07-31T08:05:40;3.8;;;1.6;;
36833;SDS011;48003;52.084;5.224;2023-07-31T08:08:54;5.5;;;2.1;;
36833;SDS011;48003;52.084;5.224;2023-07-31T08:10:31;3.4;;;1.7;;
36833;SDS011;48003;52.084;5.224;2023-07-31T08:12:08;3.9;;;1.9;;
36833;SDS011;48003;52.084;5.224;2023-07-31T08:15:22;4.2;;;2.1;;
36833;SDS011;48003;52.084;5.224;2023-07-31T08:17:00;3.3;;;1.9;;
36833;SDS011;48003;52.084;5.224;2023-07-31T08:18:38;3.1;;;1.7;;
36833;SDS011;48003;52.084;5.224;2023-07-31T08:20:15;4.3;;;2.1;;
36833;SDS011;48003;52.084;5.224;2023-07-31T08:23:29;3.5;;;1.9;;
36833;SDS011;48003;52.084;5.224;2023-07-31T08:25:06;3.0;;;1.6;;
36833;SDS011;48003;52.084;5.224;2023-07-31T08:26:43;4.2;;;1.6;;
36833;SDS011;48003;52.084;5.224;2023-07-31T08:29:58;2.31;;;1.3;;
36833;SDS011;48003;52.084;5.224;2023-07-31T08:31:35;2.0;;;1.4;;
36833;SDS011;48003;52.084;5.224;2023-07-31T08:33:12;2.0;;;1.3;;
36833;SDS011;48003;52.084;5.224;2023-07-31T08:36:25;3.9;;;1.6;;
36833;SDS011;48003;52.084;5.224;2023-07-31T08:38:03;3.3;;;1.5;;
36833;SDS011;48003;52.084;5.224;2023-07-31T08:39:40;2.21;;;1.6;;
36833;SDS011;48003;52.084;5.224;2023-07-31T08:41:17;2.21;;;1.6;;
36833;SDS011;48003;52.084;5.224;2023-07-31T08:44:32;3.5;;;1.4;;
36833;SDS011;48003;52.084;5.224;2023-07-31T08:46:11;2.6;;;1.3;;
36833;SDS011;48003;52.084;5.224;2023-07-31T08:47:49;2.21;;;1.6;;
36833;SDS011;48003;52.084;5.224;2023-07-31T08:51:06;3.0;;;1.5;;
36833;SDS011;48003;52.084;5.224;2023-07-31T08:52:46;3.1;;;1.6;;
36833;SDS011;48003;52.084;5.224;2023-07-31T08:54:24;2.8;;;1.4;;
36833;SDS011;48003;52.084;5.224;2023-07-31T08:56:01;3.5;;;1.6;;
36833;SDS011;48003;52.084;5.224;2023-07-31T08:59:18;2.4;;;1.6;;
36833;SDS011;48003;52.084;5.224;2023-07-31T09:00:58;2.7;;;1.4;;
36833;SDS011;48003;52.084;5.224;2023-07-31T09:02:41;2.9;;;1.6;;
36833;SDS011;48003;52.084;5.224;2023-07-31T09:04:28;2.5;;;1.5;;
36833;SDS011;48003;52.084;5.224;2023-07-31T09:07:43;2.1;;;1.7;;
36833;SDS011;48003;52.084;5.224;2023-07-31T09:09:23;3.8;;;1.7;;
36833;SDS011;48003;52.084;5.224;2023-07-31T09:11:00;3.0;;;1.7;;
36833;SDS011;48003;52.084;5.224;2023-07-31T09:12:37;2.8;;;1.8;;
36833;SDS011;48003;52.084;5.224;2023-07-31T09:15:55;3.0;;;1.7;;
36833;SDS011;48003;52.084;5.224;2023-07-31T09:17:32;5.11;;;2.0;;
36833;SDS011;48003;52.084;5.224;2023-07-31T09:19:10;5.11;;;2.0;;
36833;SDS011;48003;52.084;5.224;2023-07-31T09:22:37;3.1;;;1.8;;
36833;SDS011;48003;52.084;5.224;2023-07-31T09:24:14;2.8;;;1.8;;
36833;SDS011;48003;52.084;5.224;2023-07-31T09:26:02;3.7;;;2.21;;
36833;SDS011;48003;52.084;5.224;2023-07-31T09:27:45;3.4;;;2.31;;
36833;SDS011;48003;52.084;5.224;2023-07-31T09:29:23;2.8;;;2.1;;
36833;SDS011;48003;52.084;5.224;2023-07-31T09:32:38;5.0;;;2.21;;
36833;SDS011;48003;52.084;5.224;2023-07-31T09:34:15;3.0;;;2.1;;
36833;SDS011;48003;52.084;5.224;2023-07-31T09:35:52;3.5;;;2.1;;
36833;SDS011;48003;52.084;5.224;2023-07-31T09:39:07;3.8;;;2.1;;
36833;SDS011;48003;52.084;5.224;2023-07-31T09:40:46;2.8;;;2.1;;
36833;SDS011;48003;52.084;5.224;2023-07-31T09:42:26;2.9;;;2.1;;
36833;SDS011;48003;52.084;5.224;2023-07-31T09:44:03;3.6;;;2.31;;
36833;SDS011;48003;52.084;5.224;2023-07-31T09:47:22;4.3;;;2.5;;
36833;SDS011;48003;52.084;5.224;2023-07-31T09:49:04;3.5;;;2.6;;
36833;SDS011;48003;52.084;5.224;2023-07-31T09:50:48;6.7;;;2.7;;
36833;SDS011;48003;52.084;5.224;2023-07-31T09:52:26;3.9;;;2.21;;
36833;SDS011;48003;52.084;5.224;2023-07-31T09:55:40;2.6;;;2.1;;
36833;SDS011;48003;52.084;5.224;2023-07-31T09:57:18;3.5;;;2.31;;
36833;SDS011;48003;52.084;5.224;2023-07-31T09:58:58;4.2;;;2.5;;
36833;SDS011;48003;52.084;5.224;2023-07-31T10:02:15;3.0;;;2.31;;
36833;SDS011;48003;52.084;5.224;2023-07-31T10:03:57;3.6;;;2.4;;
36833;SDS011;48003;52.084;5.224;2023-07-31T10:05:35;5.5;;;2.8;;
36833;SDS011;48003;52.084;5.224;2023-07-31T10:07:16;3.9;;;2.9;;
36833;SDS011;48003;52.084;5.224;2023-07-31T10:10:32;7.6;;;3.0;;
36833;SDS011;48003;52.084;5.224;2023-07-31T10:12:12;5.3;;;3.6;;
36833;SDS011;48003;52.084;5.224;2023-07-31T10:13:55;6.7;;;4.1;;
36833;SDS011;48003;52.084;5.224;2023-07-31T10:15:32;4.91;;;4.0;;
36833;SDS011;48003;52.084;5.224;2023-07-31T10:18:48;8.4;;;4.3;;
36833;SDS011;48003;52.084;5.224;2023-07-31T10:20:26;6.4;;;4.1;;
36833;SDS011;48003;52.084;5.224;2023-07-31T10:22:05;6.3;;;4.3;;
36833;SDS011;48003;52.084;5.224;2023-07-31T10:23:44;7.4;;;4.7;;
36833;SDS011;48003;52.084;5.224;2023-07-31T10:26:59;7.0;;;4.41;;
36833;SDS011;48003;52.084;5.224;2023-07-31T10:28:37;6.0;;;4.41;;
36833;SDS011;48003;52.084;5.224;2023-07-31T10:30:16;7.7;;;4.61;;
36833;SDS011;48003;52.084;5.224;2023-07-31T10:33:34;9.5;;;4.91;;
36833;SDS011;48003;52.084;5.224;2023-07-31T10:35:11;8.6;;;4.3;;
36833;SDS011;48003;52.084;5.224;2023-07-31T10:36:48;8.0;;;5.3;;
36833;SDS011;48003;52.084;5.224;2023-07-31T10:38:25;6.9;;;4.1;;
36833;SDS011;48003;52.084;5.224;2023-07-31T10:41:41;7.0;;;4.2;;
36833;SDS011;48003;52.084;5.224;2023-07-31T10:43:25;6.2;;;4.3;;
36833;SDS011;48003;52.084;5.224;2023-07-31T10:45:03;5.3;;;3.9;;
36833;SDS011;48003;52.084;5.224;2023-07-31T10:46:42;6.0;;;3.9;;
36833;SDS011;48003;52.084;5.224;2023-07-31T10:50:31;6.9;;;4.1;;
36833;SDS011;48003;52.084;5.224;2023-07-31T10:52:10;7.0;;;3.8;;
36833;SDS011;48003;52.084;5.224;2023-07-31T10:53:48;6.6;;;3.9;;
36833;SDS011;48003;52.084;5.224;2023-07-31T10:55:26;4.61;;;3.4;;
36833;SDS011;48003;52.084;5.224;2023-07-31T10:59:00;5.5;;;3.7;;
36833;SDS011;48003;52.084;5.224;2023-07-31T11:00:38;5.2;;;3.6;;
36833;SDS011;48003;52.084;5.224;2023-07-31T11:02:23;4.41;;;3.0;;
36833;SDS011;48003;52.084;5.224;2023-07-31T11:04:07;3.5;;;2.4;;
36833;SDS011;48003;52.084;5.224;2023-07-31T11:05:48;3.3;;;2.7;;
36833;SDS011;48003;52.084;5.224;2023-07-31T11:11:05;3.4;;;2.21;;
36833;SDS011;48003;52.084;5.224;2023-07-31T11:12:44;4.61;;;2.21;;
36833;SDS011;48003;52.084;5.224;2023-07-31T11:14:21;2.8;;;2.31;;
36833;SDS011;48003;52.084;5.224;2023-07-31T11:15:59;3.1;;;2.21;;
36833;SDS011;48003;52.084;5.224;2023-07-31T11:19:20;4.2;;;2.4;;
36833;SDS011;48003;52.084;5.224;2023-07-31T11:20:57;3.1;;;2.21;;
36833;SDS011;48003;52.084;5.224;2023-07-31T11:22:35;2.7;;;1.9;;
36833;SDS011;48003;52.084;5.224;2023-07-31T11:25:49;2.8;;;1.8;;
36833;SDS011;48003;52.084;5.224;2023-07-31T11:27:27;3.1;;;2.31;;
36833;SDS011;48003;52.084;5.224;2023-07-31T11:29:10;2.5;;;2.21;;
36833;SDS011;48003;52.084;5.224;2023-07-31T11:30:47;3.0;;;2.21;;
36833;SDS011;48003;52.084;5.224;2023-07-31T11:34:04;3.5;;;2.7;;
36833;SDS011;48003;52.084;5.224;2023-07-31T11:35:44;4.1;;;2.7;;
36833;SDS011;48003;52.084;5.224;2023-07-31T11:37:23;4.91;;;2.9;;
36833;SDS011;48003;52.084;5.224;2023-07-31T11:39:05;4.91;;;3.2;;
36833;SDS011;48003;52.084;5.224;2023-07-31T11:42:19;5.2;;;3.6;;
36833;SDS011;48003;52.084;5.224;2023-07-31T11:43:59;6.0;;;3.5;;
36833;SDS011;48003;52.084;5.224;2023-07-31T11:45:37;5.4;;;3.3;;
36833;SDS011;48003;52.084;5.224;2023-07-31T11:48:57;5.11;;;3.9;;
36833;SDS011;48003;52.084;5.224;2023-07-31T11:50:36;4.7;;;3.9;;
36833;SDS011;48003;52.084;5.224;2023-07-31T11:52:13;6.8;;;4.0;;
36833;SDS011;48003;52.084;5.224;2023-07-31T11:53:52;6.6;;;3.8;;
36833;SDS011;48003;52.084;5.224;2023-07-31T11:57:08;6.9;;;4.41;;
36833;SDS011;48003;52.084;5.224;2023-07-31T11:58:45;8.0;;;4.3;;
36833;SDS011;48003;52.084;5.224;2023-07-31T12:00:23;5.7;;;3.8;;
36833;SDS011;48003;52.084;5.224;2023-07-31T12:02:00;5.11;;;3.9;;
36833;SDS011;48003;52.084;5.224;2023-07-31T12:05:14;4.91;;;3.7;;
36833;SDS011;48003;52.084;5.224;2023-07-31T12:06:52;5.5;;;3.5;;
36833;SDS011;48003;52.084;5.224;2023-07-31T12:11:44;4.5;;;3.4;;
36833;SDS011;48003;52.084;5.224;2023-07-31T12:13:23;3.5;;;3.0;;
36833;SDS011;48003;52.084;5.224;2023-07-31T12:15:01;6.2;;;3.0;;
36833;SDS011;48003;52.084;5.224;2023-07-31T12:16:38;2.9;;;2.6;;
36833;SDS011;48003;52.084;5.224;2023-07-31T12:19:56;3.0;;;2.5;;
36833;SDS011;48003;52.084;5.224;2023-07-31T12:21:32;5.3;;;2.8;;
36833;SDS011;48003;52.084;5.224;2023-07-31T12:23:14;3.5;;;2.8;;
36833;SDS011;48003;52.084;5.224;2023-07-31T12:26:33;4.5;;;2.6;;
36833;SDS011;48003;52.084;5.224;2023-07-31T12:28:10;3.5;;;2.5;;
36833;SDS011;48003;52.084;5.224;2023-07-31T12:29:47;4.0;;;2.6;;
36833;SDS011;48003;52.084;5.224;2023-07-31T12:31:23;3.3;;;2.8;;
36833;SDS011;48003;52.084;5.224;2023-07-31T12:34:43;4.61;;;3.1;;
36833;SDS011;48003;52.084;5.224;2023-07-31T12:36:20;3.2;;;2.9;;
36833;SDS011;48003;52.084;5.224;2023-07-31T12:38:00;4.8;;;3.3;;
36833;SDS011;48003;52.084;5.224;2023-07-31T12:41:14;3.8;;;3.2;;
36833;SDS011;48003;52.084;5.224;2023-07-31T12:42:51;5.8;;;3.4;;
36833;SDS011;48003;52.084;5.224;2023-07-31T12:44:28;4.1;;;3.4;;
36833;SDS011;48003;52.084;5.224;2023-07-31T12:46:05;4.91;;;2.9;;
36833;SDS011;48003;52.084;5.224;2023-07-31T12:49:20;3.9;;;3.3;;
36833;SDS011;48003;52.084;5.224;2023-07-31T12:50:57;3.9;;;3.0;;
36833;SDS011;48003;52.084;5.224;2023-07-31T12:52:34;4.2;;;3.0;;
36833;SDS011;48003;52.084;5.224;2023-07-31T12:55:49;3.9;;;3.0;;